Terminal Aerodrome Forecast
Issued by NWS

Home | Current Version | Previous Version | Text Only | Print | Product List | Glossary On
Versions: 1 2 3 4 5 6 7 8 9 10 11 12
000
FTUS43 KJKL 231739
TAFSME
TAF
KSME 231739Z 2318/2418 VRB03KT P6SM SCT040
     FM240000 VRB03KT P6SM SKC
     FM241000 00000KT 2SM BR SKC
     FM241300 VRB03KT P6SM SKC=

USA.gov is the U.S. government's official web portal to all federal, state and local government web resources and services.